createdAt,value
2022-10-26T00:01:09.186Z,100.00
2022-10-26T00:03:36.378Z,100.00
2022-10-26T00:06:11.583Z,100.00
2022-10-26T00:08:38.508Z,100.00
2022-10-26T00:11:05.510Z,100.00
2022-10-26T00:13:32.619Z,100.00
2022-10-26T00:18:26.659Z,100.00
2022-10-26T00:20:53.144Z,100.00
2022-10-26T00:23:19.635Z,100.00
2022-10-26T00:25:54.369Z,100.00
2022-10-26T00:28:20.818Z,100.00
2022-10-26T00:30:47.590Z,100.00
2022-10-26T00:33:14.512Z,100.00
2022-10-26T00:35:45.972Z,100.00
2022-10-26T00:38:12.962Z,100.00
2022-10-26T00:40:39.427Z,100.00
2022-10-26T00:43:13.404Z,100.00
2022-10-26T00:45:39.968Z,100.00
2022-10-26T00:48:10.094Z,100.00
2022-10-26T00:50:39.745Z,100.00
2022-10-26T00:53:07.074Z,100.00
2022-10-26T00:55:40.636Z,100.00
2022-10-26T00:58:07.369Z,100.00
2022-10-26T01:00:33.838Z,100.00
2022-10-26T01:03:06.504Z,100.00
2022-10-26T01:05:34.375Z,100.00
2022-10-26T01:08:01.935Z,100.00
2022-10-26T01:10:28.940Z,100.00
2022-10-26T01:12:56.770Z,100.00
2022-10-26T01:15:28.418Z,100.00
2022-10-26T01:17:57.891Z,100.00
2022-10-26T01:20:59.724Z,100.00
2022-10-26T01:23:34.055Z,100.00
2022-10-26T01:26:15.345Z,100.00
2022-10-26T01:29:06.608Z,100.00
2022-10-26T01:31:45.887Z,100.00
2022-10-26T01:34:15.328Z,100.00
2022-10-26T01:36:45.905Z,100.00
2022-10-26T01:39:21.166Z,100.00
2022-10-26T01:41:50.049Z,100.00
2022-10-26T01:44:28.625Z,100.00
2022-10-26T01:46:55.937Z,100.00
2022-10-26T01:49:25.395Z,100.00
2022-10-26T01:51:51.864Z,100.00
2022-10-26T01:54:18.343Z,100.00
2022-10-26T01:56:47.870Z,100.00
2022-10-26T01:59:30.419Z,100.00
2022-10-26T02:02:19.556Z,100.00
2022-10-26T02:05:13.706Z,100.00
2022-10-26T02:07:58.378Z,100.00
2022-10-26T02:10:46.237Z,100.00
2022-10-26T02:13:32.882Z,100.00
2022-10-26T02:16:24.616Z,100.00
2022-10-26T02:19:17.084Z,100.00
2022-10-26T02:21:53.368Z,100.00
2022-10-26T02:24:20.427Z,100.00
2022-10-26T02:26:48.233Z,100.00
2022-10-26T02:29:17.707Z,100.00
2022-10-26T02:31:45.468Z,100.00
2022-10-26T02:34:13.616Z,100.00
2022-10-26T02:36:42.940Z,100.00
2022-10-26T02:39:10.233Z,100.00
2022-10-26T02:41:36.886Z,100.00
2022-10-26T02:44:25.060Z,100.00
2022-10-26T02:46:51.871Z,100.00
2022-10-26T02:49:18.571Z,100.00
2022-10-26T02:51:45.992Z,100.00
2022-10-26T02:54:26.842Z,100.00
2022-10-26T02:57:00.262Z,100.00
2022-10-26T02:59:30.918Z,100.00
2022-10-26T03:01:57.746Z,100.00
2022-10-26T03:04:31.436Z,100.00
2022-10-26T03:06:58.265Z,100.00
2022-10-26T03:09:25.683Z,100.00
2022-10-26T03:11:52.520Z,100.00
2022-10-26T03:14:19.055Z,100.00
2022-10-26T03:16:45.815Z,100.00
2022-10-26T03:19:12.466Z,100.00
2022-10-26T03:21:38.923Z,100.00
2022-10-26T03:24:05.647Z,100.00
2022-10-26T03:26:32.127Z,100.00
2022-10-26T03:28:58.667Z,100.00
2022-10-26T03:31:25.160Z,100.00
2022-10-26T03:33:51.746Z,100.00
2022-10-26T03:36:18.198Z,100.00
2022-10-26T03:38:44.800Z,100.00
2022-10-26T03:41:11.317Z,100.00
2022-10-26T03:43:37.836Z,100.00
2022-10-26T03:46:04.355Z,100.00
2022-10-26T03:48:30.850Z,100.00
2022-10-26T03:50:58.319Z,100.00
2022-10-26T03:53:25.083Z,100.00
2022-10-26T03:55:51.595Z,100.00
2022-10-26T03:58:18.134Z,100.00
2022-10-26T04:00:44.846Z,100.00
2022-10-26T04:03:11.382Z,100.00
2022-10-26T04:05:37.869Z,100.00
2022-10-26T04:08:04.389Z,100.00
2022-10-26T04:10:34.740Z,100.00
2022-10-26T04:13:01.278Z,100.00
2022-10-26T04:15:28.408Z,100.00
2022-10-26T04:17:59.831Z,100.00
2022-10-26T04:20:27.036Z,100.00
2022-10-26T04:23:00.302Z,100.00
2022-10-26T04:25:30.118Z,100.00
2022-10-26T04:28:00.389Z,100.00
2022-10-26T04:30:26.855Z,100.00
2022-10-26T04:32:53.323Z,100.00
2022-10-26T04:35:19.833Z,100.00
2022-10-26T04:37:46.298Z,100.00
2022-10-26T04:40:12.831Z,100.00
2022-10-26T04:42:46.620Z,100.00
2022-10-26T04:45:14.740Z,100.00
2022-10-26T04:47:41.697Z,100.00
2022-10-26T04:50:09.229Z,100.00
2022-10-26T04:52:36.288Z,100.00
2022-10-26T04:55:06.160Z,100.00
2022-10-26T04:57:33.552Z,100.00
2022-10-26T05:00:00.983Z,100.00
2022-10-26T05:02:28.641Z,100.00
2022-10-26T05:04:55.279Z,100.00
2022-10-26T05:07:21.786Z,100.00
2022-10-26T05:09:48.311Z,100.00
2022-10-26T05:12:14.828Z,100.00
2022-10-26T05:14:41.333Z,100.00
2022-10-26T05:17:07.923Z,100.00
2022-10-26T05:19:34.499Z,100.00
2022-10-26T05:22:01.053Z,100.00
2022-10-26T05:24:27.507Z,100.00
2022-10-26T05:26:54.138Z,100.00
2022-10-26T05:29:20.595Z,100.00
2022-10-26T05:31:47.193Z,100.00
2022-10-26T05:34:13.669Z,100.00
2022-10-26T05:36:40.303Z,100.00
2022-10-26T05:39:06.896Z,100.00
2022-10-26T05:41:33.469Z,100.00
2022-10-26T05:44:00.037Z,100.00
2022-10-26T05:46:26.623Z,100.00
2022-10-26T05:48:53.171Z,100.00
2022-10-26T05:51:19.652Z,100.00
2022-10-26T05:53:46.190Z,100.00
2022-10-26T05:56:34.000Z,100.00
2022-10-26T05:59:04.901Z,100.00
2022-10-26T06:02:00.605Z,100.00
2022-10-26T06:04:38.770Z,100.00
2022-10-26T06:07:13.549Z,100.00
2022-10-26T06:09:41.268Z,100.00
2022-10-26T06:12:08.790Z,100.00
2022-10-26T06:14:35.981Z,100.00
2022-10-26T06:17:22.376Z,100.00
2022-10-26T06:20:26.141Z,100.00
2022-10-26T06:23:18.874Z,100.00
2022-10-26T06:26:09.557Z,100.00
2022-10-26T06:28:55.936Z,100.00
2022-10-26T06:31:22.410Z,100.00
2022-10-26T06:33:48.860Z,100.00
2022-10-26T06:36:22.926Z,100.00
2022-10-26T06:38:53.042Z,100.00
2022-10-26T06:41:20.067Z,100.00
2022-10-26T06:43:46.751Z,100.00
2022-10-26T06:46:41.834Z,100.00
2022-10-26T06:49:27.989Z,100.00
2022-10-26T06:52:03.800Z,100.00
2022-10-26T06:54:47.140Z,100.00
2022-10-26T06:57:15.899Z,100.00
2022-10-26T06:59:50.635Z,100.00
2022-10-26T07:02:17.584Z,100.00
2022-10-26T07:04:44.497Z,100.00
2022-10-26T07:07:17.440Z,100.00
2022-10-26T07:09:43.906Z,100.00
2022-10-26T07:12:10.427Z,100.00
2022-10-26T07:14:36.875Z,100.00
2022-10-26T07:17:03.863Z,100.00
2022-10-26T07:19:30.314Z,100.00
2022-10-26T07:21:57.495Z,100.00
2022-10-26T07:24:24.069Z,100.00
2022-10-26T07:26:50.587Z,100.00
2022-10-26T07:29:18.088Z,100.00
2022-10-26T07:31:44.773Z,100.00
2022-10-26T07:34:11.304Z,100.00
2022-10-26T07:36:37.847Z,100.00
2022-10-26T07:39:04.399Z,100.00
2022-10-26T07:41:30.892Z,100.00
2022-10-26T07:43:57.503Z,100.00
2022-10-26T07:46:24.071Z,100.00
2022-10-26T07:48:50.691Z,100.00
2022-10-26T07:51:17.187Z,100.00
2022-10-26T07:53:43.677Z,100.00
2022-10-26T07:56:10.704Z,100.00
2022-10-26T07:58:37.297Z,100.00
2022-10-26T08:01:13.239Z,100.00
2022-10-26T08:03:40.311Z,100.00
2022-10-26T08:06:07.578Z,100.00
2022-10-26T08:08:34.077Z,100.00
2022-10-26T08:11:00.860Z,100.00
2022-10-26T08:13:27.526Z,100.00
2022-10-26T08:16:01.729Z,100.00
2022-10-26T08:18:28.354Z,100.00
2022-10-26T08:21:01.740Z,100.00
2022-10-26T08:23:36.691Z,100.00
2022-10-26T08:26:03.923Z,100.00
2022-10-26T08:28:30.819Z,100.00
2022-10-26T08:30:57.273Z,100.00
2022-10-26T08:33:24.702Z,100.00
2022-10-26T08:36:02.339Z,100.00
2022-10-26T08:38:29.244Z,100.00
2022-10-26T08:40:57.543Z,100.00
2022-10-26T08:43:27.955Z,100.00
2022-10-26T08:45:57.158Z,100.00
2022-10-26T08:48:35.803Z,100.00
2022-10-26T08:51:24.522Z,100.00
2022-10-26T08:54:00.017Z,100.00
2022-10-26T08:56:28.370Z,100.00
2022-10-26T08:58:57.459Z,100.00
2022-10-26T09:01:24.027Z,100.00
2022-10-26T09:03:50.884Z,100.00
2022-10-26T09:06:41.519Z,100.00
2022-10-26T09:09:16.868Z,100.00
2022-10-26T09:12:07.487Z,100.00
2022-10-26T09:14:43.560Z,100.00
2022-10-26T09:17:34.806Z,100.00
2022-10-26T09:20:18.259Z,100.00
2022-10-26T09:23:01.009Z,100.00
2022-10-26T09:25:35.479Z,100.00
2022-10-26T09:28:02.264Z,100.00
2022-10-26T09:30:30.322Z,100.00
2022-10-26T09:33:02.593Z,100.00
2022-10-26T09:36:00.397Z,100.00
2022-10-26T09:38:32.305Z,100.00
2022-10-26T09:41:06.602Z,100.00
2022-10-26T09:43:41.731Z,100.00
2022-10-26T09:46:13.450Z,100.00
2022-10-26T09:48:45.552Z,100.00
2022-10-26T09:51:12.217Z,100.00
2022-10-26T09:53:38.666Z,100.00
2022-10-26T09:56:10.544Z,100.00
2022-10-26T09:58:44.959Z,100.00
2022-10-26T10:01:22.072Z,100.00
2022-10-26T10:03:48.603Z,100.00
2022-10-26T10:06:18.372Z,100.00
2022-10-26T10:09:05.119Z,100.00
2022-10-26T10:11:54.887Z,100.00
2022-10-26T10:14:26.614Z,100.00
2022-10-26T10:16:55.700Z,100.00
2022-10-26T10:19:25.354Z,100.00
2022-10-26T10:21:54.525Z,100.00
2022-10-26T10:24:33.675Z,100.00
2022-10-26T10:27:03.010Z,100.00
2022-10-26T10:29:34.918Z,100.00
2022-10-26T10:32:03.057Z,100.00
2022-10-26T10:34:33.619Z,100.00
2022-10-26T10:37:00.993Z,100.00
2022-10-26T10:39:34.546Z,100.00
2022-10-26T10:42:01.163Z,100.00
2022-10-26T10:44:31.726Z,99.30
2022-10-26T10:47:06.279Z,98.31
2022-10-26T10:49:33.418Z,96.94
2022-10-26T10:52:00.296Z,97.34
2022-10-26T10:54:33.364Z,96.79
2022-10-26T10:57:29.442Z,96.35
2022-10-26T11:00:05.385Z,95.92
2022-10-26T11:02:47.010Z,95.58
2022-10-26T11:05:32.039Z,94.04
2022-10-26T11:08:03.821Z,93.51
2022-10-26T11:10:35.271Z,93.15
2022-10-26T11:13:05.002Z,92.75
2022-10-26T11:15:34.441Z,92.53
2022-10-26T11:18:09.576Z,91.55
2022-10-26T11:20:40.866Z,91.50
2022-10-26T11:23:12.843Z,91.35
2022-10-26T11:25:56.946Z,90.98
2022-10-26T11:28:37.492Z,90.82
2022-10-26T11:31:08.305Z,90.26
2022-10-26T11:33:41.532Z,90.95
2022-10-26T11:36:21.880Z,90.10
2022-10-26T11:39:20.391Z,89.18
2022-10-26T11:42:21.330Z,88.61
2022-10-26T11:45:22.910Z,88.78
2022-10-26T11:48:16.100Z,87.82
2022-10-26T11:50:49.057Z,87.31
2022-10-26T11:53:18.059Z,86.98
2022-10-26T11:55:48.878Z,86.71
2022-10-26T11:58:17.255Z,86.01
2022-10-26T12:01:07.538Z,86.61
2022-10-26T12:03:38.099Z,86.51
2022-10-26T12:06:04.731Z,86.65
2022-10-26T12:08:36.314Z,86.75
2022-10-26T12:11:09.989Z,86.35
2022-10-26T12:13:42.295Z,86.49
2022-10-26T12:16:40.144Z,86.46
2022-10-26T12:19:14.727Z,86.23
2022-10-26T12:21:43.867Z,86.61
2022-10-26T12:24:22.681Z,86.65
2022-10-26T12:26:50.708Z,86.86
2022-10-26T12:29:29.463Z,87.50
2022-10-26T12:31:55.951Z,87.50
2022-10-26T12:34:29.404Z,87.21
2022-10-26T12:36:55.806Z,87.21
2022-10-26T12:39:36.278Z,87.44
2022-10-26T12:42:05.574Z,87.31
2022-10-26T12:44:37.828Z,87.16
2022-10-26T12:47:05.300Z,87.37
2022-10-26T12:50:06.210Z,87.81
2022-10-26T12:53:11.057Z,88.06
2022-10-26T12:55:46.623Z,87.52
2022-10-26T12:58:32.508Z,87.81
2022-10-26T13:00:58.957Z,87.69
2022-10-26T13:04:09.103Z,86.97
2022-10-26T13:06:54.475Z,86.37
2022-10-26T13:09:23.424Z,86.50
2022-10-26T13:11:53.030Z,86.03
2022-10-26T13:14:37.263Z,85.92
2022-10-26T13:17:05.514Z,85.67
2022-10-26T13:19:45.467Z,84.81
2022-10-26T13:22:16.334Z,83.24
2022-10-26T13:24:52.285Z,83.22
2022-10-26T13:27:18.982Z,82.71
2022-10-26T13:30:03.475Z,81.45
2022-10-26T13:32:33.763Z,79.95
2022-10-26T13:35:01.854Z,79.09
2022-10-26T13:37:31.638Z,77.78
2022-10-26T13:39:59.677Z,77.66
2022-10-26T13:43:04.736Z,78.34
2022-10-26T13:45:34.464Z,80.19
2022-10-26T13:48:10.241Z,82.26
2022-10-26T13:51:01.860Z,82.80
2022-10-26T13:53:40.437Z,84.27
2022-10-26T13:56:13.701Z,84.39
2022-10-26T13:58:48.965Z,85.14
2022-10-26T14:01:18.078Z,85.23
2022-10-26T14:03:44.628Z,85.76
2022-10-26T14:06:24.041Z,85.75
2022-10-26T14:08:51.823Z,86.13
2022-10-26T14:11:21.164Z,85.84
2022-10-26T14:13:49.243Z,85.88
2022-10-26T14:16:19.192Z,85.60
2022-10-26T14:18:46.408Z,86.25
2022-10-26T14:21:16.136Z,86.51
2022-10-26T14:23:49.044Z,86.00
2022-10-26T14:26:26.586Z,85.81
2022-10-26T14:28:56.378Z,85.71
2022-10-26T14:31:25.445Z,85.74
2022-10-26T14:33:52.678Z,85.93
2022-10-26T14:36:21.720Z,86.56
2022-10-26T14:38:50.126Z,86.47
2022-10-26T14:41:17.578Z,86.23
2022-10-26T14:43:44.686Z,86.13
2022-10-26T14:46:18.604Z,86.42
2022-10-26T14:48:53.917Z,86.39
2022-10-26T14:51:22.367Z,86.66
2022-10-26T14:53:51.032Z,86.65
2022-10-26T14:56:35.650Z,87.06
2022-10-26T14:59:22.649Z,87.12
2022-10-26T15:01:54.008Z,87.71
2022-10-26T15:04:32.463Z,88.15
2022-10-26T15:07:18.200Z,88.19
2022-10-26T15:09:51.927Z,87.92
2022-10-26T15:12:33.498Z,88.12
2022-10-26T15:17:55.240Z,88.23
2022-10-26T15:20:23.338Z,88.01
2022-10-26T15:23:01.678Z,87.98
2022-10-26T15:25:30.155Z,88.09
2022-10-26T15:28:09.251Z,87.52
2022-10-26T15:30:35.751Z,87.75
2022-10-26T15:33:18.803Z,87.41
2022-10-26T15:35:45.240Z,87.57
2022-10-26T15:38:11.866Z,87.98
2022-10-26T15:40:42.627Z,87.79
2022-10-26T15:43:10.475Z,88.36
2022-10-26T15:45:47.887Z,88.47
2022-10-26T15:48:17.723Z,88.31
2022-10-26T15:50:44.201Z,88.70
2022-10-26T15:53:18.233Z,89.16
2022-10-26T15:55:44.799Z,89.68
2022-10-26T15:58:11.605Z,89.27
2022-10-26T16:00:38.078Z,89.77
2022-10-26T16:03:04.545Z,89.96
2022-10-26T16:07:58.642Z,91.03
2022-10-26T16:10:25.668Z,92.18
2022-10-26T16:12:52.607Z,92.71
2022-10-26T16:15:24.396Z,92.35
2022-10-26T16:17:51.237Z,92.78
2022-10-26T16:20:23.182Z,93.63
2022-10-26T16:22:51.256Z,93.38
2022-10-26T16:25:20.840Z,93.87
2022-10-26T16:27:47.832Z,94.17
2022-10-26T16:30:14.368Z,94.55
2022-10-26T16:32:41.232Z,94.27
2022-10-26T16:35:08.443Z,95.04
2022-10-26T16:37:34.930Z,94.45
2022-10-26T16:40:01.374Z,95.48
2022-10-26T16:42:28.461Z,95.47
2022-10-26T16:44:57.594Z,95.95
2022-10-26T16:47:27.105Z,96.34
2022-10-26T16:49:53.843Z,97.48
2022-10-26T16:52:20.309Z,97.14
2022-10-26T16:54:46.807Z,97.37
2022-10-26T16:57:13.323Z,98.09
2022-10-26T16:59:39.832Z,98.70
2022-10-26T17:02:06.619Z,98.90
2022-10-26T17:04:33.135Z,99.78
2022-10-26T17:07:02.287Z,99.28
2022-10-26T17:09:29.774Z,99.03
2022-10-26T17:12:00.937Z,99.25
2022-10-26T17:14:31.909Z,99.23
2022-10-26T17:16:58.888Z,99.68
2022-10-26T17:19:25.351Z,99.38
2022-10-26T17:21:53.876Z,99.85
2022-10-26T17:24:20.731Z,99.61
2022-10-26T17:26:47.485Z,99.86
2022-10-26T17:29:14.156Z,99.65
2022-10-26T17:31:40.726Z,99.39
2022-10-26T17:34:07.271Z,99.24
2022-10-26T17:36:33.796Z,99.42
2022-10-26T17:39:00.898Z,99.97
2022-10-26T17:41:28.072Z,100.00
2022-10-26T17:43:54.624Z,100.00
2022-10-26T17:46:25.642Z,99.88
2022-10-26T17:48:59.452Z,100.00
2022-10-26T17:51:29.655Z,100.00
2022-10-26T17:53:56.924Z,100.00
2022-10-26T17:56:26.767Z,100.00
2022-10-26T17:58:58.468Z,100.00
2022-10-26T18:01:25.288Z,100.00
2022-10-26T18:03:52.063Z,100.00
2022-10-26T18:06:18.861Z,100.00
2022-10-26T18:08:45.647Z,100.00
2022-10-26T18:11:15.002Z,100.00
2022-10-26T18:13:41.547Z,99.68
2022-10-26T18:16:11.000Z,100.00
2022-10-26T18:18:38.530Z,99.73
2022-10-26T18:21:09.842Z,100.00
2022-10-26T18:23:36.814Z,100.00
2022-10-26T18:26:11.125Z,100.00
2022-10-26T18:28:39.863Z,100.00
2022-10-26T18:31:07.880Z,100.00
2022-10-26T18:33:36.598Z,100.00
2022-10-26T18:36:04.298Z,100.00
2022-10-26T18:38:31.367Z,100.00
2022-10-26T18:40:58.031Z,100.00
2022-10-26T18:43:24.696Z,99.66
2022-10-26T18:45:51.192Z,100.00
2022-10-26T18:48:18.673Z,100.00
2022-10-26T18:50:45.695Z,99.80
2022-10-26T18:53:16.369Z,99.74
2022-10-26T18:55:43.021Z,99.61
2022-10-26T18:58:11.349Z,99.80
2022-10-26T19:00:38.841Z,99.61
2022-10-26T19:03:07.979Z,99.71
2022-10-26T19:05:35.081Z,99.78
2022-10-26T19:08:01.546Z,100.00
2022-10-26T19:10:28.076Z,100.00
2022-10-26T19:12:54.571Z,100.00
2022-10-26T19:15:21.590Z,100.00
2022-10-26T19:17:48.083Z,100.00
2022-10-26T19:20:14.715Z,99.93
2022-10-26T19:22:41.260Z,100.00
2022-10-26T19:25:08.519Z,100.00
2022-10-26T19:27:35.042Z,99.96
2022-10-26T19:30:01.578Z,100.00
2022-10-26T19:32:28.787Z,100.00
2022-10-26T19:34:55.376Z,100.00
2022-10-26T19:37:23.719Z,100.00
2022-10-26T19:39:52.517Z,100.00
2022-10-26T19:42:19.019Z,100.00
2022-10-26T19:44:45.470Z,100.00
2022-10-26T19:47:11.922Z,100.00
2022-10-26T19:49:38.390Z,100.00
2022-10-26T19:52:04.992Z,100.00
2022-10-26T19:54:31.662Z,100.00
2022-10-26T19:56:58.190Z,100.00
2022-10-26T19:59:24.651Z,100.00
2022-10-26T20:01:51.197Z,100.00
2022-10-26T20:04:17.780Z,100.00
2022-10-26T20:06:44.331Z,100.00
2022-10-26T20:09:10.966Z,100.00
2022-10-26T20:11:39.642Z,100.00
2022-10-26T20:14:07.505Z,100.00
2022-10-26T20:16:33.978Z,100.00
2022-10-26T20:19:01.103Z,100.00
2022-10-26T20:21:27.579Z,99.83
2022-10-26T20:23:54.038Z,99.87
2022-10-26T20:26:21.387Z,99.87
2022-10-26T20:28:51.088Z,99.86
2022-10-26T20:31:17.782Z,99.70
2022-10-26T20:33:44.359Z,100.00
2022-10-26T20:36:10.830Z,100.00
2022-10-26T20:38:39.052Z,99.78
2022-10-26T20:41:07.975Z,100.00
2022-10-26T20:43:46.713Z,100.00
2022-10-26T20:46:23.388Z,99.96
2022-10-26T20:48:50.968Z,99.82
2022-10-26T20:51:22.280Z,99.57
2022-10-26T20:54:01.478Z,99.50
2022-10-26T20:56:28.244Z,99.53
2022-10-26T20:58:59.764Z,99.40
2022-10-26T21:01:34.379Z,99.08
2022-10-26T21:04:02.518Z,99.56
2022-10-26T21:06:29.854Z,99.43
2022-10-26T21:08:57.230Z,99.29
2022-10-26T21:11:24.951Z,99.20
2022-10-26T21:13:53.066Z,99.19
2022-10-26T21:16:19.534Z,99.34
2022-10-26T21:18:46.070Z,98.97
2022-10-26T21:21:12.594Z,98.70
2022-10-26T21:23:40.543Z,99.04
2022-10-26T21:26:07.922Z,98.85
2022-10-26T21:28:42.159Z,98.62
2022-10-26T21:31:12.717Z,98.39
2022-10-26T21:33:39.264Z,98.89
2022-10-26T21:36:08.292Z,98.66
2022-10-26T21:38:35.187Z,99.25
2022-10-26T21:41:03.883Z,99.26
2022-10-26T21:43:30.657Z,99.66
2022-10-26T21:46:03.586Z,99.50
2022-10-26T21:48:31.534Z,99.76
2022-10-26T21:50:58.006Z,100.00
2022-10-26T21:53:26.526Z,100.00
2022-10-26T21:56:00.709Z,100.00
2022-10-26T21:58:27.662Z,100.00
2022-10-26T22:00:54.178Z,100.00
2022-10-26T22:03:20.698Z,100.00
2022-10-26T22:05:53.403Z,100.00
2022-10-26T22:08:20.016Z,100.00
2022-10-26T22:10:46.533Z,100.00
2022-10-26T22:13:13.004Z,100.00
2022-10-26T22:15:39.541Z,99.92
2022-10-26T22:18:06.109Z,100.00
2022-10-26T22:20:32.655Z,100.00
2022-10-26T22:22:59.165Z,100.00
2022-10-26T22:25:25.652Z,100.00
2022-10-26T22:27:52.310Z,100.00
2022-10-26T22:30:19.037Z,100.00
2022-10-26T22:32:45.507Z,100.00
2022-10-26T22:35:28.605Z,100.00
2022-10-26T22:37:56.192Z,100.00
2022-10-26T22:40:22.637Z,100.00
2022-10-26T22:42:51.572Z,100.00
2022-10-26T22:45:18.337Z,100.00
2022-10-26T22:47:44.862Z,100.00
2022-10-26T22:50:11.322Z,100.00
2022-10-26T22:52:37.787Z,100.00
2022-10-26T22:55:04.327Z,100.00
2022-10-26T22:57:30.838Z,100.00
2022-10-26T22:59:57.296Z,100.00
2022-10-26T23:02:23.810Z,100.00
2022-10-26T23:04:50.314Z,100.00
2022-10-26T23:07:16.797Z,100.00
2022-10-26T23:09:43.264Z,100.00
2022-10-26T23:12:09.751Z,100.00
2022-10-26T23:14:36.333Z,100.00
2022-10-26T23:17:03.780Z,100.00
2022-10-26T23:19:30.232Z,100.00
2022-10-26T23:21:56.684Z,100.00
2022-10-26T23:24:23.171Z,100.00
2022-10-26T23:26:49.679Z,100.00
2022-10-26T23:29:16.337Z,100.00
2022-10-26T23:31:42.805Z,100.00
2022-10-26T23:34:09.455Z,100.00
2022-10-26T23:36:35.919Z,100.00
2022-10-26T23:39:02.831Z,100.00
2022-10-26T23:41:29.360Z,100.00
2022-10-26T23:43:55.869Z,100.00
2022-10-26T23:46:22.410Z,100.00
2022-10-26T23:48:48.906Z,100.00
2022-10-26T23:51:15.395Z,100.00
2022-10-26T23:53:41.843Z,100.00
2022-10-26T23:56:08.296Z,100.00
2022-10-26T23:58:34.783Z,100.00
